Airfield :
LOGIN :

Register | Disclaimer

   EN    FR    IT 

 










Legend :    VFR   Marginal VFR   IFR   Intensive IFR   Very Intensive IFR
Visi :
Ceiling :
>= 8 km
>= 3000ft
5 to 8 km
1000 to 3000 ft
1500m to 5 km
500 to 1000 ft
800 to 1500m
200 to 500 ft
< 800m
< 200 ft
Symbols :   Thunderstorms  Fog  Heavy snow  Heavy precipitations  Wind > 20 kt
SIGMETs :     Misc.  Thunderstorms  Icing  Turbulence  Mountain Waves  Volcanic Ashes






- Airport Elevation : 587 ft
- IATA code : XCR


LFOK - Chalons Vatry

CURRENT METAR :
  • 101100Z AUTO 17009KT CAVOK 03/02 Q1028

EXPIRED METARs :
  • 101030Z AUTO 16010KT CAVOK 03/02 Q1028
  • 101000Z AUTO 18008KT CAVOK 02/01 Q1028
  • 100930Z AUTO 19006KT CAVOK 02/01 Q1028
  • 100900Z AUTO 20007KT 9999 FEW010 00/M00 Q1029
  • 100830Z AUTO 17006KT 9999 FEW010 M00/M01 Q1028

TAF TAF LFOK
Valid from the 10 at 00:00 until the 11 at 00:00 UTC


092300Z 1000/1024 32012KT CAVOK
BECMG 1001/1004 VRB03KT
BECMG 1008/1011 18013KT
TEMPO 1022/1024 18015G25KT



MET'MAP, your aeronautical weather chart ! - Copyright ORBIFLY December 2007 - Disclaimer

ORBIFLY MET'MAP TEAM :

Programming & Development : Alexandra Zaïnal
Concept & original design : Baudouin d'Aumeries
Assistance for programming : Marc-Olivier Méhu
Technical & hardware support : Manuel Goepfert

Contact : metmap@orbifly.com




SOURCES & CREDITS :

   NOAA